F.r. Bigelow — WDB8153 — position and weather

sailwx.info

Track history (hours):
 
Tides and Currents Weather Stations Pressure Air Temp Water Temp Dewpoint Dewpoint Depression Visibility Wind Speed Wind Dir Waves Ship Positions

F.r. Bigelow

Owner: INGRAM BARGE COMPANY, Nashville, TN. More information available from US FCC via Universal Licensing System and Coast Guard Vessel Documentation Center.

Last reported at 2016-Jul-21 04:31 UTC. Time now 2016-Jul-24 10:46 UTC.
Position N 29°56' W 090°10'.

Length 46 m; draft 3.5 m.

Type: Tow > 200 m length. MMSI: 366953890.

Date/timePositionNaut miles runAvg speedWind from/ knotsBaromVisibWave heightAir tempDewpointWater temp
2016-Jul-21 04:31N 29°56' W 090°10'2 2.1
2016-Jul-21 03:33N 29°55' W 090°08'4 3.8
2016-Jul-21 02:34N 29°55' W 090°04'3 2.9
2016-Jul-21 01:33N 29°57' W 090°01'5 4.6
2016-Jul-21 00:25N 29°55' W 089°56'2 1.8
2016-Jul-20 23:33N 29°54' W 089°54'3 2.8
2016-Jul-20 22:34N 29°53' W 089°57'4 4.3
2016-Jul-20 21:32N 29°49' W 090°00'3 0.1
2016-Jul-19 18:33N 29°46' W 090°02'6 6.2
2016-Jul-19 17:33N 29°52' W 089°59'4 3.7
2016-Jul-19 16:27N 29°53' W 089°54'5 5.4
2016-Jul-19 15:34N 29°56' W 089°59'4 4.1
2016-Jul-19 14:33N 29°55' W 090°04'5 4.6
2016-Jul-19 13:33N 29°57' W 090°09'1 0.0
2016-Jul-18 04:34N 29°56' W 090°08'3 2.7
2016-Jul-18 03:33N 29°55' W 090°06'3 2.6
2016-Jul-18 02:33N 29°57' W 090°03'0 0.0
2016-Jul-18 01:33N 29°57' W 090°03'0 0.0
2016-Jul-18 00:34N 29°57' W 090°03'0 0.1
2016-Jul-17 23:34N 29°57' W 090°03'0 0.1
2016-Jul-17 22:34N 29°56' W 090°03'0 0.2
2016-Jul-17 21:33N 29°57' W 090°03'0 0.0
2016-Jul-17 20:33N 29°57' W 090°03'0 0.0
2016-Jul-17 19:33N 29°57' W 090°03'3 3.2
2016-Jul-17 18:33N 29°56' W 089°60'4 3.5
2016-Jul-17 17:26N 29°55' W 089°55'0 0.0
2016-Jul-17 16:29N 29°55' W 089°55'2 2.0
2016-Jul-17 15:33N 29°53' W 089°54'3 3.1
2016-Jul-17 14:32N 29°53' W 089°58'4 4.1
2016-Jul-17 13:33N 29°49' W 089°60'2 1.7
2016-Jul-17 12:29N 29°48' W 090°01'0 0.1
2016-Jul-17 11:33N 29°48' W 090°01'0 0.0
2016-Jul-17 10:30N 29°48' W 090°01'0 0.0
2016-Jul-17 09:33N 29°48' W 090°01'0 0.0
2016-Jul-17 08:32N 29°48' W 090°01'0 0.0
2016-Jul-17 03:14N 29°48' W 090°01'1 0.9
2016-Jul-17 02:34N 29°47' W 090°01'0 0.0
2016-Jul-17 01:33N 29°47' W 090°01'1 0.1
2016-Jul-16 16:33N 29°46' W 090°01'6 6.5
2016-Jul-16 15:33N 29°52' W 089°59'4 4.2
2016-Jul-16 14:33N 29°54' W 089°54'6 6.3
2016-Jul-16 13:34N 29°57' W 090°01'5 4.8
2016-Jul-16 12:33N 29°55' W 090°06'5 4.2
2016-Jul-16 11:27N 29°56' W 090°11'1 0.0
2016-Jul-15 15:33N 29°56' W 090°11'2 2.0
2016-Jul-15 14:33N 29°57' W 090°09'3 3.3
2016-Jul-15 13:33N 29°55' W 090°07'4 3.6
2016-Jul-15 12:33N 29°57' W 090°03'0 0.0
2016-Jul-15 11:34N 29°57' W 090°03'0 0.1
2016-Jul-15 10:34N 29°57' W 090°03'1 1.1
2016-Jul-15 09:33N 29°57' W 090°03'5 5.3
2016-Jul-15 08:33N 29°55' W 089°57'3 3.3
2016-Jul-15 07:32N 29°52' W 089°56'4 4.0
2016-Jul-15 06:33N 29°50' W 089°60'2 2.0
2016-Jul-15 05:31N 29°48' W 090°01'0 0.0
2016-Jul-15 04:33N 29°48' W 090°01'0 0.1
2016-Jul-15 03:24N 29°48' W 090°01'0 0.0
2016-Jul-15 02:33N 29°48' W 090°01'0 0.0
2016-Jul-15 01:33N 29°48' W 090°01'0 0.1
2016-Jul-15 00:30N 29°48' W 090°01'1 0.6
2016-Jul-14 23:33N 29°48' W 090°01'0 0.0
2016-Jul-14 22:33N 29°48' W 090°01'2 1.8
2016-Jul-14 21:33N 29°46' W 090°01'1 0.1
2016-Jul-14 12:21N 29°45' W 090°01'5 4.9
2016-Jul-14 11:23N 29°50' W 089°60'4 4.9
2016-Jul-14 10:34N 29°53' W 089°57'3 2.8
2016-Jul-14 09:33N 29°55' W 089°55'6 6.2
2016-Jul-14 08:33N 29°57' W 090°02'5 4.7
2016-Jul-14 07:33N 29°55' W 090°06'4 3.6
2016-Jul-14 06:20N 29°56' W 090°11'  
2016-Jul-11 23:14N 30°04' W 090°51'  
Track history (hours):
 
Tides and Currents Weather Stations Pressure Air Temp Water Temp Dewpoint Dewpoint Depression Visibility Wind Speed Wind Dir Waves Ship Positions

F.r. Bigelow

Owner: INGRAM BARGE COMPANY, Nashville, TN. More information available from US FCC via Universal Licensing System and Coast Guard Vessel Documentation Center.

Last reported at 2016-Jul-21 04:31 UTC. Time now 2016-Jul-24 10:46 UTC.
Position N 29°56' W 090°10'.

Length 46 m; draft 3.5 m.

Type: Tow > 200 m length. MMSI: 366953890.

Date/timePositionNaut miles runAvg speedWind from/ knotsBaromVisibWave heightAir tempDewpointWater temp
2016-Jul-21 04:31N 29°56' W 090°10'2 2.1
2016-Jul-21 03:33N 29°55' W 090°08'4 3.8
2016-Jul-21 02:34N 29°55' W 090°04'3 2.9
2016-Jul-21 01:33N 29°57' W 090°01'5 4.6
2016-Jul-21 00:25N 29°55' W 089°56'2 1.8
2016-Jul-20 23:33N 29°54' W 089°54'3 2.8
2016-Jul-20 22:34N 29°53' W 089°57'4 4.3
2016-Jul-20 21:32N 29°49' W 090°00'3 0.1
2016-Jul-19 18:33N 29°46' W 090°02'6 6.2
2016-Jul-19 17:33N 29°52' W 089°59'4 3.7
2016-Jul-19 16:27N 29°53' W 089°54'5 5.4
2016-Jul-19 15:34N 29°56' W 089°59'4 4.1
2016-Jul-19 14:33N 29°55' W 090°04'5 4.6
2016-Jul-19 13:33N 29°57' W 090°09'1 0.0
2016-Jul-18 04:34N 29°56' W 090°08'3 2.7
2016-Jul-18 03:33N 29°55' W 090°06'3 2.6
2016-Jul-18 02:33N 29°57' W 090°03'0 0.0
2016-Jul-18 01:33N 29°57' W 090°03'0 0.0
2016-Jul-18 00:34N 29°57' W 090°03'0 0.1
2016-Jul-17 23:34N 29°57' W 090°03'0 0.1
2016-Jul-17 22:34N 29°56' W 090°03'0 0.2
2016-Jul-17 21:33N 29°57' W 090°03'0 0.0
2016-Jul-17 20:33N 29°57' W 090°03'0 0.0
2016-Jul-17 19:33N 29°57' W 090°03'3 3.2
2016-Jul-17 18:33N 29°56' W 089°60'4 3.5
2016-Jul-17 17:26N 29°55' W 089°55'0 0.0
2016-Jul-17 16:29N 29°55' W 089°55'2 2.0
2016-Jul-17 15:33N 29°53' W 089°54'3 3.1
2016-Jul-17 14:32N 29°53' W 089°58'4 4.1
2016-Jul-17 13:33N 29°49' W 089°60'2 1.7
2016-Jul-17 12:29N 29°48' W 090°01'0 0.1
2016-Jul-17 11:33N 29°48' W 090°01'0 0.0
2016-Jul-17 10:30N 29°48' W 090°01'0 0.0
2016-Jul-17 09:33N 29°48' W 090°01'0 0.0
2016-Jul-17 08:32N 29°48' W 090°01'0 0.0
2016-Jul-17 03:14N 29°48' W 090°01'1 0.9
2016-Jul-17 02:34N 29°47' W 090°01'0 0.0
2016-Jul-17 01:33N 29°47' W 090°01'1 0.1
2016-Jul-16 16:33N 29°46' W 090°01'6 6.5
2016-Jul-16 15:33N 29°52' W 089°59'4 4.2
2016-Jul-16 14:33N 29°54' W 089°54'6 6.3
2016-Jul-16 13:34N 29°57' W 090°01'5 4.8
2016-Jul-16 12:33N 29°55' W 090°06'5 4.2
2016-Jul-16 11:27N 29°56' W 090°11'1 0.0
2016-Jul-15 15:33N 29°56' W 090°11'2 2.0
2016-Jul-15 14:33N 29°57' W 090°09'3 3.3
2016-Jul-15 13:33N 29°55' W 090°07'4 3.6
2016-Jul-15 12:33N 29°57' W 090°03'0 0.0
2016-Jul-15 11:34N 29°57' W 090°03'0 0.1
2016-Jul-15 10:34N 29°57' W 090°03'1 1.1
2016-Jul-15 09:33N 29°57' W 090°03'5 5.3
2016-Jul-15 08:33N 29°55' W 089°57'3 3.3
2016-Jul-15 07:32N 29°52' W 089°56'4 4.0
2016-Jul-15 06:33N 29°50' W 089°60'2 2.0
2016-Jul-15 05:31N 29°48' W 090°01'0 0.0
2016-Jul-15 04:33N 29°48' W 090°01'0 0.1
2016-Jul-15 03:24N 29°48' W 090°01'0 0.0
2016-Jul-15 02:33N 29°48' W 090°01'0 0.0
2016-Jul-15 01:33N 29°48' W 090°01'0 0.1
2016-Jul-15 00:30N 29°48' W 090°01'1 0.6
2016-Jul-14 23:33N 29°48' W 090°01'0 0.0
2016-Jul-14 22:33N 29°48' W 090°01'2 1.8
2016-Jul-14 21:33N 29°46' W 090°01'1 0.1
2016-Jul-14 12:21N 29°45' W 090°01'5 4.9
2016-Jul-14 11:23N 29°50' W 089°60'4 4.9
2016-Jul-14 10:34N 29°53' W 089°57'3 2.8
2016-Jul-14 09:33N 29°55' W 089°55'6 6.2
2016-Jul-14 08:33N 29°57' W 090°02'5 4.7
2016-Jul-14 07:33N 29°55' W 090°06'4 3.6
2016-Jul-14 06:20N 29°56' W 090°11'  
2016-Jul-11 23:14N 30°04' W 090°51'  

Dump ship's entire track history